createdAt,value
2023-03-21T00:05:54.407Z,10.56
2023-03-21T00:16:06.496Z,10.48
2023-03-21T00:26:17.171Z,10.57
2023-03-21T00:36:21.568Z,10.57
2023-03-21T00:46:27.636Z,10.58
2023-03-21T00:56:33.950Z,10.58
2023-03-21T01:06:39.429Z,10.63
2023-03-21T01:16:43.518Z,10.50
2023-03-21T01:26:46.177Z,10.55
2023-03-21T01:36:50.174Z,10.45
2023-03-21T01:47:07.660Z,10.37
2023-03-21T01:57:17.520Z,10.33
2023-03-21T02:07:25.688Z,10.34
2023-03-21T02:17:43.051Z,10.30
2023-03-21T02:28:01.266Z,10.39
2023-03-21T02:38:18.730Z,10.35
2023-03-21T02:48:29.508Z,10.36
2023-03-21T02:58:34.493Z,10.23
2023-03-21T03:09:01.908Z,10.15
2023-03-21T03:19:09.900Z,10.15
2023-03-21T03:29:16.617Z,9.89
2023-03-21T03:39:20.543Z,9.90
2023-03-21T03:49:34.584Z,9.83
2023-03-21T03:59:39.110Z,9.76
2023-03-21T04:09:44.980Z,9.68
2023-03-21T04:19:55.559Z,9.51
2023-03-21T04:30:00.763Z,9.36
2023-03-21T04:40:06.988Z,9.43
2023-03-21T04:50:13.143Z,9.29
2023-03-21T05:00:20.989Z,9.24
2023-03-21T05:10:23.518Z,9.25
2023-03-21T05:20:27.445Z,9.21
2023-03-21T05:30:30.312Z,9.17
2023-03-21T05:40:34.132Z,9.12
2023-03-21T05:50:36.669Z,9.20
2023-03-21T06:00:40.524Z,9.24
2023-03-21T06:10:43.330Z,9.24
2023-03-21T06:20:47.492Z,9.31
2023-03-21T06:30:50.404Z,9.35
2023-03-21T06:40:54.426Z,9.41
2023-03-21T06:50:57.428Z,9.41
2023-03-21T07:01:15.808Z,9.48
2023-03-21T07:11:19.821Z,9.50
2023-03-21T07:21:26.422Z,9.76
2023-03-21T07:31:30.291Z,9.91
2023-03-21T07:41:32.826Z,9.94
2023-03-21T07:51:36.806Z,10.03
2023-03-21T08:01:39.339Z,10.46
2023-03-21T08:11:43.147Z,10.57
2023-03-21T08:21:51.027Z,10.88
2023-03-21T08:31:54.869Z,11.06
2023-03-21T08:41:57.358Z,11.22
2023-03-21T08:52:01.219Z,11.54
2023-03-21T09:02:04.200Z,11.81
2023-03-21T09:12:08.270Z,12.08
2023-03-21T09:22:17.291Z,12.57
2023-03-21T09:32:21.337Z,12.89
2023-03-21T09:42:31.879Z,13.22
2023-03-21T09:52:44.035Z,13.44
2023-03-21T10:02:48.085Z,13.86
2023-03-21T10:12:53.801Z,14.13
2023-03-21T10:22:57.569Z,14.52
2023-03-21T10:33:15.149Z,14.67
2023-03-21T10:43:33.967Z,14.74
2023-03-21T10:53:37.531Z,14.80
2023-03-21T11:03:44.630Z,14.90
2023-03-21T11:13:47.210Z,14.85
2023-03-21T11:23:52.840Z,14.91
2023-03-21T11:33:58.145Z,15.06
2023-03-21T11:44:02.746Z,15.07
2023-03-21T11:54:20.654Z,15.15
2023-03-21T12:04:35.102Z,15.33
2023-03-21T12:14:52.632Z,15.50
2023-03-21T12:24:57.524Z,15.31
2023-03-21T12:35:11.457Z,15.44
2023-03-21T12:45:20.756Z,15.69
2023-03-21T12:55:39.554Z,16.46
2023-03-21T13:05:49.268Z,16.62
2023-03-21T13:15:58.180Z,17.19
2023-03-21T13:26:02.453Z,17.25
2023-03-21T13:36:20.051Z,17.28
2023-03-21T13:46:53.906Z,17.43
2023-03-21T13:57:05.553Z,17.10
2023-03-21T14:07:09.351Z,16.91
2023-03-21T14:17:16.866Z,16.75
2023-03-21T14:27:22.853Z,16.64
2023-03-21T14:37:31.290Z,16.74
2023-03-21T14:47:37.275Z,16.60
2023-03-21T14:57:43.498Z,16.57
2023-03-21T15:08:01.726Z,16.54
2023-03-21T15:18:16.170Z,16.49
2023-03-21T15:28:19.033Z,16.37
2023-03-21T15:38:40.032Z,16.27
2023-03-21T15:48:42.525Z,16.15
2023-03-21T15:58:48.925Z,16.02
2023-03-21T16:08:53.315Z,15.99
2023-03-21T16:18:58.277Z,15.87
2023-03-21T16:29:01.514Z,15.81
2023-03-21T16:39:12.858Z,15.70
2023-03-21T16:49:19.598Z,15.61
2023-03-21T16:59:23.617Z,15.43
2023-03-21T17:09:27.890Z,15.28
2023-03-21T17:19:31.942Z,15.11
2023-03-21T17:29:34.578Z,15.06
2023-03-21T17:39:38.650Z,14.95
2023-03-21T17:49:41.245Z,15.07
2023-03-21T17:59:45.222Z,15.00
2023-03-21T18:09:47.785Z,15.14
2023-03-21T18:19:51.627Z,14.81
2023-03-21T18:30:25.692Z,14.37
2023-03-21T18:40:22.130Z,14.27
2023-03-21T18:50:24.926Z,14.20
2023-03-21T19:00:28.883Z,14.17
2023-03-21T19:10:31.427Z,14.13
2023-03-21T19:20:35.561Z,14.06
2023-03-21T19:30:38.352Z,13.92
2023-03-21T19:40:43.787Z,13.87
2023-03-21T19:51:20.209Z,13.72
2023-03-21T20:01:19.049Z,13.69
2023-03-21T20:11:21.657Z,13.27
2023-03-21T20:21:32.489Z,13.49
2023-03-21T20:31:37.670Z,13.30
2023-03-21T20:41:41.487Z,13.12
2023-03-21T21:02:08.048Z,13.04
2023-03-21T21:12:11.487Z,13.06
2023-03-21T21:22:17.439Z,13.05
2023-03-21T21:32:19.893Z,13.02
2023-03-21T21:42:23.704Z,12.96
2023-03-21T21:52:26.204Z,13.04
2023-03-21T22:02:30.365Z,13.15
2023-03-21T22:12:32.820Z,13.11
2023-03-21T22:22:37.199Z,13.02
2023-03-21T22:32:39.685Z,12.84
2023-03-21T22:42:45.312Z,12.74
2023-03-21T22:52:47.953Z,12.71
2023-03-21T23:02:52.401Z,12.68
2023-03-21T23:12:55.361Z,12.49
2023-03-21T23:22:59.594Z,12.41
2023-03-21T23:33:02.046Z,12.32
2023-03-21T23:43:05.931Z,12.25
2023-03-21T23:53:08.543Z,12.33
